sensor_id;sensor_type;location;lat;lon;timestamp;P1;durP1;ratioP1;P2;durP2;ratioP2
20298;SDS011;10308;42.688;23.256;2022-08-30T00:02:19;10.68;;;9.68;;
20298;SDS011;10308;42.688;23.256;2022-08-30T00:04:46;10.50;;;9.65;;
20298;SDS011;10308;42.688;23.256;2022-08-30T00:07:13;10.27;;;9.30;;
20298;SDS011;10308;42.688;23.256;2022-08-30T00:09:40;9.80;;;9.10;;
20298;SDS011;10308;42.688;23.256;2022-08-30T00:12:09;10.25;;;9.27;;
20298;SDS011;10308;42.688;23.256;2022-08-30T00:14:36;10.45;;;9.45;;
20298;SDS011;10308;42.688;23.256;2022-08-30T00:17:03;9.88;;;9.00;;
20298;SDS011;10308;42.688;23.256;2022-08-30T00:19:30;10.82;;;9.75;;
20298;SDS011;10308;42.688;23.256;2022-08-30T00:21:57;9.38;;;8.57;;
20298;SDS011;10308;42.688;23.256;2022-08-30T00:24:24;9.52;;;8.68;;
20298;SDS011;10308;42.688;23.256;2022-08-30T00:26:51;10.05;;;9.13;;
20298;SDS011;10308;42.688;23.256;2022-08-30T00:29:20;10.10;;;9.10;;
20298;SDS011;10308;42.688;23.256;2022-08-30T00:31:48;9.45;;;8.65;;
20298;SDS011;10308;42.688;23.256;2022-08-30T00:34:15;10.13;;;8.93;;
20298;SDS011;10308;42.688;23.256;2022-08-30T00:36:42;11.73;;;8.65;;
20298;SDS011;10308;42.688;23.256;2022-08-30T00:39:09;9.38;;;8.68;;
20298;SDS011;10308;42.688;23.256;2022-08-30T00:41:36;9.88;;;8.88;;
20298;SDS011;10308;42.688;23.256;2022-08-30T00:44:03;9.93;;;8.93;;
20298;SDS011;10308;42.688;23.256;2022-08-30T00:46:33;10.07;;;9.07;;
20298;SDS011;10308;42.688;23.256;2022-08-30T00:49:00;9.75;;;8.80;;
20298;SDS011;10308;42.688;23.256;2022-08-30T00:51:29;9.45;;;8.55;;
20298;SDS011;10308;42.688;23.256;2022-08-30T00:53:58;10.25;;;9.35;;
20298;SDS011;10308;42.688;23.256;2022-08-30T00:56:26;9.70;;;8.73;;
20298;SDS011;10308;42.688;23.256;2022-08-30T00:58:56;10.60;;;9.50;;
20298;SDS011;10308;42.688;23.256;2022-08-30T01:01:25;9.60;;;8.70;;
20298;SDS011;10308;42.688;23.256;2022-08-30T01:03:54;9.88;;;9.05;;
20298;SDS011;10308;42.688;23.256;2022-08-30T01:06:21;9.45;;;8.75;;
20298;SDS011;10308;42.688;23.256;2022-08-30T01:08:48;9.77;;;8.88;;
20298;SDS011;10308;42.688;23.256;2022-08-30T01:11:16;9.93;;;8.98;;
20298;SDS011;10308;42.688;23.256;2022-08-30T01:13:44;9.88;;;8.98;;
20298;SDS011;10308;42.688;23.256;2022-08-30T01:16:12;9.82;;;8.93;;
20298;SDS011;10308;42.688;23.256;2022-08-30T01:18:39;9.68;;;8.77;;
20298;SDS011;10308;42.688;23.256;2022-08-30T01:21:09;9.88;;;8.98;;
20298;SDS011;10308;42.688;23.256;2022-08-30T01:23:43;9.82;;;9.02;;
20298;SDS011;10308;42.688;23.256;2022-08-30T01:26:12;9.35;;;8.65;;
20298;SDS011;10308;42.688;23.256;2022-08-30T01:28:39;8.88;;;8.02;;
20298;SDS011;10308;42.688;23.256;2022-08-30T01:31:07;9.63;;;8.82;;
20298;SDS011;10308;42.688;23.256;2022-08-30T01:33:34;10.73;;;9.52;;
20298;SDS011;10308;42.688;23.256;2022-08-30T01:36:03;10.23;;;9.32;;
20298;SDS011;10308;42.688;23.256;2022-08-30T01:38:33;9.50;;;8.70;;
20298;SDS011;10308;42.688;23.256;2022-08-30T01:41:08;9.85;;;9.05;;
20298;SDS011;10308;42.688;23.256;2022-08-30T01:43:36;10.77;;;9.68;;
20298;SDS011;10308;42.688;23.256;2022-08-30T01:46:03;9.77;;;8.77;;
20298;SDS011;10308;42.688;23.256;2022-08-30T01:48:31;9.52;;;8.73;;
20298;SDS011;10308;42.688;23.256;2022-08-30T01:50:58;10.57;;;9.48;;
20298;SDS011;10308;42.688;23.256;2022-08-30T01:53:25;9.65;;;8.60;;
20298;SDS011;10308;42.688;23.256;2022-08-30T01:55:52;9.85;;;8.98;;
20298;SDS011;10308;42.688;23.256;2022-08-30T01:58:20;10.52;;;9.45;;
20298;SDS011;10308;42.688;23.256;2022-08-30T02:00:47;10.07;;;9.18;;
20298;SDS011;10308;42.688;23.256;2022-08-30T02:03:14;9.73;;;8.90;;
20298;SDS011;10308;42.688;23.256;2022-08-30T02:05:42;10.27;;;9.25;;
20298;SDS011;10308;42.688;23.256;2022-08-30T02:08:09;9.90;;;9.00;;
20298;SDS011;10308;42.688;23.256;2022-08-30T02:10:36;10.57;;;9.65;;
20298;SDS011;10308;42.688;23.256;2022-08-30T02:13:03;10.65;;;9.63;;
20298;SDS011;10308;42.688;23.256;2022-08-30T02:15:31;10.23;;;9.27;;
20298;SDS011;10308;42.688;23.256;2022-08-30T02:17:59;10.48;;;9.40;;
20298;SDS011;10308;42.688;23.256;2022-08-30T02:20:26;10.25;;;9.45;;
20298;SDS011;10308;42.688;23.256;2022-08-30T02:22:53;9.68;;;8.77;;
20298;SDS011;10308;42.688;23.256;2022-08-30T02:25:20;9.77;;;8.80;;
20298;SDS011;10308;42.688;23.256;2022-08-30T02:27:47;10.02;;;8.98;;
20298;SDS011;10308;42.688;23.256;2022-08-30T02:30:14;10.82;;;9.05;;
20298;SDS011;10308;42.688;23.256;2022-08-30T02:32:43;10.57;;;9.23;;
20298;SDS011;10308;42.688;23.256;2022-08-30T02:35:10;10.82;;;9.82;;
20298;SDS011;10308;42.688;23.256;2022-08-30T02:37:37;10.90;;;9.90;;
20298;SDS011;10308;42.688;23.256;2022-08-30T02:40:05;10.68;;;9.77;;
20298;SDS011;10308;42.688;23.256;2022-08-30T02:42:33;10.93;;;9.75;;
20298;SDS011;10308;42.688;23.256;2022-08-30T02:45:01;10.95;;;9.85;;
20298;SDS011;10308;42.688;23.256;2022-08-30T02:47:28;10.80;;;9.80;;
20298;SDS011;10308;42.688;23.256;2022-08-30T02:49:56;10.88;;;10.02;;
20298;SDS011;10308;42.688;23.256;2022-08-30T02:52:23;10.02;;;9.02;;
20298;SDS011;10308;42.688;23.256;2022-08-30T02:54:51;10.52;;;9.60;;
20298;SDS011;10308;42.688;23.256;2022-08-30T02:57:19;9.52;;;8.73;;
20298;SDS011;10308;42.688;23.256;2022-08-30T02:59:46;10.35;;;9.45;;
20298;SDS011;10308;42.688;23.256;2022-08-30T03:02:16;10.73;;;9.75;;
20298;SDS011;10308;42.688;23.256;2022-08-30T03:04:43;11.80;;;9.45;;
20298;SDS011;10308;42.688;23.256;2022-08-30T03:07:12;9.73;;;8.80;;
20298;SDS011;10308;42.688;23.256;2022-08-30T03:09:39;9.43;;;8.63;;
20298;SDS011;10308;42.688;23.256;2022-08-30T03:12:06;9.77;;;8.77;;
20298;SDS011;10308;42.688;23.256;2022-08-30T03:14:34;9.20;;;8.40;;
20298;SDS011;10308;42.688;23.256;2022-08-30T03:17:02;9.27;;;8.48;;
20298;SDS011;10308;42.688;23.256;2022-08-30T03:19:30;9.95;;;9.15;;
20298;SDS011;10308;42.688;23.256;2022-08-30T03:21:57;9.63;;;8.75;;
20298;SDS011;10308;42.688;23.256;2022-08-30T03:24:25;9.70;;;8.82;;
20298;SDS011;10308;42.688;23.256;2022-08-30T03:26:52;9.80;;;8.80;;
20298;SDS011;10308;42.688;23.256;2022-08-30T03:29:19;10.68;;;9.77;;
20298;SDS011;10308;42.688;23.256;2022-08-30T03:31:47;10.00;;;9.07;;
20298;SDS011;10308;42.688;23.256;2022-08-30T03:34:13;9.57;;;8.77;;
20298;SDS011;10308;42.688;23.256;2022-08-30T03:36:40;10.55;;;9.60;;
20298;SDS011;10308;42.688;23.256;2022-08-30T03:39:09;10.98;;;9.93;;
20298;SDS011;10308;42.688;23.256;2022-08-30T03:41:37;11.43;;;10.20;;
20298;SDS011;10308;42.688;23.256;2022-08-30T03:44:04;11.70;;;9.98;;
20298;SDS011;10308;42.688;23.256;2022-08-30T03:46:31;10.48;;;9.23;;
20298;SDS011;10308;42.688;23.256;2022-08-30T03:48:58;10.68;;;9.75;;
20298;SDS011;10308;42.688;23.256;2022-08-30T03:51:24;10.80;;;9.90;;
20298;SDS011;10308;42.688;23.256;2022-08-30T03:53:51;11.35;;;10.25;;
20298;SDS011;10308;42.688;23.256;2022-08-30T03:56:18;11.00;;;9.88;;
20298;SDS011;10308;42.688;23.256;2022-08-30T03:58:47;11.75;;;10.60;;
20298;SDS011;10308;42.688;23.256;2022-08-30T04:01:14;10.82;;;9.90;;
20298;SDS011;10308;42.688;23.256;2022-08-30T04:03:41;11.18;;;10.20;;
20298;SDS011;10308;42.688;23.256;2022-08-30T04:06:07;12.02;;;10.32;;
20298;SDS011;10308;42.688;23.256;2022-08-30T04:08:34;12.52;;;11.23;;
20298;SDS011;10308;42.688;23.256;2022-08-30T04:11:02;16.23;;;13.20;;
20298;SDS011;10308;42.688;23.256;2022-08-30T04:13:30;13.23;;;11.93;;
20298;SDS011;10308;42.688;23.256;2022-08-30T04:15:58;13.38;;;12.07;;
20298;SDS011;10308;42.688;23.256;2022-08-30T04:18:25;14.40;;;12.77;;
20298;SDS011;10308;42.688;23.256;2022-08-30T04:20:52;14.27;;;12.57;;
20298;SDS011;10308;42.688;23.256;2022-08-30T04:23:19;13.07;;;11.80;;
20298;SDS011;10308;42.688;23.256;2022-08-30T04:25:46;13.07;;;11.80;;
20298;SDS011;10308;42.688;23.256;2022-08-30T04:28:13;12.55;;;11.35;;
20298;SDS011;10308;42.688;23.256;2022-08-30T04:30:40;13.38;;;11.80;;
20298;SDS011;10308;42.688;23.256;2022-08-30T04:33:09;13.90;;;12.32;;
20298;SDS011;10308;42.688;23.256;2022-08-30T04:35:39;12.18;;;10.98;;
20298;SDS011;10308;42.688;23.256;2022-08-30T04:38:06;12.05;;;10.95;;
20298;SDS011;10308;42.688;23.256;2022-08-30T04:40:33;12.05;;;10.93;;
20298;SDS011;10308;42.688;23.256;2022-08-30T04:42:59;11.75;;;10.73;;
20298;SDS011;10308;42.688;23.256;2022-08-30T04:45:26;12.23;;;11.02;;
20298;SDS011;10308;42.688;23.256;2022-08-30T04:47:53;12.38;;;11.13;;
20298;SDS011;10308;42.688;23.256;2022-08-30T04:50:22;12.55;;;11.25;;
20298;SDS011;10308;42.688;23.256;2022-08-30T04:52:49;12.68;;;11.10;;
20298;SDS011;10308;42.688;23.256;2022-08-30T04:55:16;12.30;;;11.00;;
20298;SDS011;10308;42.688;23.256;2022-08-30T04:57:43;13.00;;;12.02;;
20298;SDS011;10308;42.688;23.256;2022-08-30T05:00:10;11.73;;;10.63;;
20298;SDS011;10308;42.688;23.256;2022-08-30T05:02:38;11.50;;;10.50;;
20298;SDS011;10308;42.688;23.256;2022-08-30T05:05:06;11.90;;;10.90;;
20298;SDS011;10308;42.688;23.256;2022-08-30T05:07:52;13.30;;;11.45;;
20298;SDS011;10308;42.688;23.256;2022-08-30T05:10:20;12.85;;;11.35;;
20298;SDS011;10308;42.688;23.256;2022-08-30T05:12:47;13.40;;;12.10;;
20298;SDS011;10308;42.688;23.256;2022-08-30T05:15:14;12.57;;;11.32;;
20298;SDS011;10308;42.688;23.256;2022-08-30T05:17:41;13.32;;;12.10;;
20298;SDS011;10308;42.688;23.256;2022-08-30T05:20:09;13.27;;;12.07;;
20298;SDS011;10308;42.688;23.256;2022-08-30T05:22:37;13.38;;;11.25;;
20298;SDS011;10308;42.688;23.256;2022-08-30T05:25:07;16.35;;;12.18;;
20298;SDS011;10308;42.688;23.256;2022-08-30T05:27:34;12.52;;;11.32;;
20298;SDS011;10308;42.688;23.256;2022-08-30T05:30:01;12.70;;;11.40;;
20298;SDS011;10308;42.688;23.256;2022-08-30T05:32:31;11.88;;;10.77;;
20298;SDS011;10308;42.688;23.256;2022-08-30T05:34:58;13.18;;;11.98;;
20298;SDS011;10308;42.688;23.256;2022-08-30T05:37:25;12.68;;;11.50;;
20298;SDS011;10308;42.688;23.256;2022-08-30T05:39:52;15.00;;;12.23;;
20298;SDS011;10308;42.688;23.256;2022-08-30T05:42:20;12.77;;;11.63;;
20298;SDS011;10308;42.688;23.256;2022-08-30T05:44:49;12.38;;;11.27;;
20298;SDS011;10308;42.688;23.256;2022-08-30T05:47:16;12.65;;;11.52;;
20298;SDS011;10308;42.688;23.256;2022-08-30T05:49:43;13.25;;;12.18;;
20298;SDS011;10308;42.688;23.256;2022-08-30T05:52:10;13.82;;;12.60;;
20298;SDS011;10308;42.688;23.256;2022-08-30T05:54:39;13.50;;;12.25;;
20298;SDS011;10308;42.688;23.256;2022-08-30T05:57:06;14.07;;;12.68;;
20298;SDS011;10308;42.688;23.256;2022-08-30T05:59:35;13.80;;;12.50;;
20298;SDS011;10308;42.688;23.256;2022-08-30T06:02:02;13.88;;;12.25;;
20298;SDS011;10308;42.688;23.256;2022-08-30T06:04:32;13.90;;;12.50;;
20298;SDS011;10308;42.688;23.256;2022-08-30T06:07:00;13.60;;;12.38;;
20298;SDS011;10308;42.688;23.256;2022-08-30T06:09:27;15.23;;;12.77;;
20298;SDS011;10308;42.688;23.256;2022-08-30T06:11:55;15.63;;;12.82;;
20298;SDS011;10308;42.688;23.256;2022-08-30T06:14:22;15.32;;;13.88;;
20298;SDS011;10308;42.688;23.256;2022-08-30T06:16:51;16.73;;;15.23;;
20298;SDS011;10308;42.688;23.256;2022-08-30T06:19:18;17.55;;;15.75;;
20298;SDS011;10308;42.688;23.256;2022-08-30T06:21:46;18.38;;;16.88;;
20298;SDS011;10308;42.688;23.256;2022-08-30T06:24:13;21.67;;;19.92;;
20298;SDS011;10308;42.688;23.256;2022-08-30T06:26:41;18.83;;;17.02;;
20298;SDS011;10308;42.688;23.256;2022-08-30T06:29:11;15.27;;;13.98;;
20298;SDS011;10308;42.688;23.256;2022-08-30T06:31:42;16.50;;;14.57;;
20298;SDS011;10308;42.688;23.256;2022-08-30T06:34:11;15.55;;;14.15;;
20298;SDS011;10308;42.688;23.256;2022-08-30T06:36:38;15.63;;;14.20;;
20298;SDS011;10308;42.688;23.256;2022-08-30T06:39:05;15.88;;;14.48;;
20298;SDS011;10308;42.688;23.256;2022-08-30T06:41:32;16.75;;;15.10;;
20298;SDS011;10308;42.688;23.256;2022-08-30T06:44:02;17.42;;;15.70;;
20298;SDS011;10308;42.688;23.256;2022-08-30T06:46:32;18.42;;;16.55;;
20298;SDS011;10308;42.688;23.256;2022-08-30T06:49:00;16.60;;;15.20;;
20298;SDS011;10308;42.688;23.256;2022-08-30T06:51:29;17.35;;;15.85;;
20298;SDS011;10308;42.688;23.256;2022-08-30T06:53:57;16.40;;;14.80;;
20298;SDS011;10308;42.688;23.256;2022-08-30T06:56:24;16.02;;;14.55;;
20298;SDS011;10308;42.688;23.256;2022-08-30T06:58:54;16.20;;;14.70;;
20298;SDS011;10308;42.688;23.256;2022-08-30T07:01:21;16.88;;;15.35;;
20298;SDS011;10308;42.688;23.256;2022-08-30T07:03:49;17.67;;;14.50;;
20298;SDS011;10308;42.688;23.256;2022-08-30T07:06:17;15.93;;;14.38;;
20298;SDS011;10308;42.688;23.256;2022-08-30T07:08:45;16.38;;;14.65;;
20298;SDS011;10308;42.688;23.256;2022-08-30T07:11:13;17.15;;;14.52;;
20298;SDS011;10308;42.688;23.256;2022-08-30T07:13:40;16.25;;;14.75;;
20298;SDS011;10308;42.688;23.256;2022-08-30T07:16:10;16.05;;;14.38;;
20298;SDS011;10308;42.688;23.256;2022-08-30T07:18:37;15.85;;;14.32;;
20298;SDS011;10308;42.688;23.256;2022-08-30T07:21:16;15.30;;;13.82;;
20298;SDS011;10308;42.688;23.256;2022-08-30T07:23:46;16.00;;;14.18;;
20298;SDS011;10308;42.688;23.256;2022-08-30T07:26:14;16.50;;;14.80;;
20298;SDS011;10308;42.688;23.256;2022-08-30T07:28:43;15.43;;;14.02;;
20298;SDS011;10308;42.688;23.256;2022-08-30T07:31:12;17.17;;;15.63;;
20298;SDS011;10308;42.688;23.256;2022-08-30T07:33:40;15.65;;;14.13;;
20298;SDS011;10308;42.688;23.256;2022-08-30T07:36:07;15.27;;;13.88;;
20298;SDS011;10308;42.688;23.256;2022-08-30T07:38:34;14.07;;;12.75;;
20298;SDS011;10308;42.688;23.256;2022-08-30T07:41:02;14.38;;;13.07;;
20298;SDS011;10308;42.688;23.256;2022-08-30T07:43:30;16.30;;;14.48;;
20298;SDS011;10308;42.688;23.256;2022-08-30T07:46:00;15.70;;;14.23;;
20298;SDS011;10308;42.688;23.256;2022-08-30T07:48:27;15.52;;;14.05;;
20298;SDS011;10308;42.688;23.256;2022-08-30T07:50:54;17.77;;;16.15;;
20298;SDS011;10308;42.688;23.256;2022-08-30T07:53:21;16.08;;;14.35;;
20298;SDS011;10308;42.688;23.256;2022-08-30T07:55:48;15.25;;;13.95;;
20298;SDS011;10308;42.688;23.256;2022-08-30T07:58:17;13.93;;;12.60;;
20298;SDS011;10308;42.688;23.256;2022-08-30T08:00:44;13.30;;;12.07;;
20298;SDS011;10308;42.688;23.256;2022-08-30T08:03:12;13.85;;;12.73;;
20298;SDS011;10308;42.688;23.256;2022-08-30T08:05:40;14.60;;;13.07;;
20298;SDS011;10308;42.688;23.256;2022-08-30T08:08:09;17.13;;;15.43;;
20298;SDS011;10308;42.688;23.256;2022-08-30T08:10:38;14.98;;;13.65;;
20298;SDS011;10308;42.688;23.256;2022-08-30T08:13:06;14.68;;;13.15;;
20298;SDS011;10308;42.688;23.256;2022-08-30T08:15:35;15.25;;;13.75;;
20298;SDS011;10308;42.688;23.256;2022-08-30T08:18:02;15.73;;;14.23;;
20298;SDS011;10308;42.688;23.256;2022-08-30T08:20:29;14.45;;;13.05;;
20298;SDS011;10308;42.688;23.256;2022-08-30T08:22:57;15.50;;;13.88;;
20298;SDS011;10308;42.688;23.256;2022-08-30T08:25:24;15.98;;;14.30;;
20298;SDS011;10308;42.688;23.256;2022-08-30T08:27:51;15.48;;;13.98;;
20298;SDS011;10308;42.688;23.256;2022-08-30T08:30:19;13.93;;;12.63;;
20298;SDS011;10308;42.688;23.256;2022-08-30T08:32:48;13.77;;;12.35;;
20298;SDS011;10308;42.688;23.256;2022-08-30T08:35:15;13.73;;;12.43;;
20298;SDS011;10308;42.688;23.256;2022-08-30T08:37:42;12.68;;;11.50;;
20298;SDS011;10308;42.688;23.256;2022-08-30T08:40:13;12.50;;;11.23;;
20298;SDS011;10308;42.688;23.256;2022-08-30T08:42:46;14.00;;;11.10;;
20298;SDS011;10308;42.688;23.256;2022-08-30T08:45:28;13.43;;;12.32;;
20298;SDS011;10308;42.688;23.256;2022-08-30T08:48:02;14.13;;;12.75;;
20298;SDS011;10308;42.688;23.256;2022-08-30T08:50:33;12.63;;;11.52;;
20298;SDS011;10308;42.688;23.256;2022-08-30T08:53:02;12.32;;;11.23;;
20298;SDS011;10308;42.688;23.256;2022-08-30T08:55:48;12.93;;;11.73;;
20298;SDS011;10308;42.688;23.256;2022-08-30T08:58:18;13.10;;;12.00;;
20298;SDS011;10308;42.688;23.256;2022-08-30T09:00:48;13.70;;;12.30;;
20298;SDS011;10308;42.688;23.256;2022-08-30T09:03:17;14.60;;;13.23;;
20298;SDS011;10308;42.688;23.256;2022-08-30T09:05:46;13.98;;;12.88;;
20298;SDS011;10308;42.688;23.256;2022-08-30T09:08:15;15.20;;;13.80;;
20298;SDS011;10308;42.688;23.256;2022-08-30T09:10:46;15.85;;;14.32;;
20298;SDS011;10308;42.688;23.256;2022-08-30T09:13:16;15.23;;;13.75;;
20298;SDS011;10308;42.688;23.256;2022-08-30T09:15:43;15.57;;;13.60;;
20298;SDS011;10308;42.688;23.256;2022-08-30T09:18:09;14.10;;;12.77;;
20298;SDS011;10308;42.688;23.256;2022-08-30T09:20:39;15.32;;;13.95;;
20298;SDS011;10308;42.688;23.256;2022-08-30T09:23:19;14.27;;;12.98;;
20298;SDS011;10308;42.688;23.256;2022-08-30T09:25:49;14.10;;;12.90;;
20298;SDS011;10308;42.688;23.256;2022-08-30T09:28:20;15.63;;;14.02;;
20298;SDS011;10308;42.688;23.256;2022-08-30T09:30:56;15.07;;;13.75;;
20298;SDS011;10308;42.688;23.256;2022-08-30T09:33:25;17.45;;;15.65;;
20298;SDS011;10308;42.688;23.256;2022-08-30T09:35:54;16.08;;;14.48;;
20298;SDS011;10308;42.688;23.256;2022-08-30T09:38:22;15.38;;;13.93;;
20298;SDS011;10308;42.688;23.256;2022-08-30T09:40:52;14.73;;;13.23;;
20298;SDS011;10308;42.688;23.256;2022-08-30T09:43:21;15.27;;;13.95;;
20298;SDS011;10308;42.688;23.256;2022-08-30T09:46:03;33.63;;;30.35;;
20298;SDS011;10308;42.688;23.256;2022-08-30T09:48:33;37.20;;;33.78;;
20298;SDS011;10308;42.688;23.256;2022-08-30T09:54:18;19.58;;;17.67;;
20298;SDS011;10308;42.688;23.256;2022-08-30T09:56:52;17.13;;;15.43;;
20298;SDS011;10308;42.688;23.256;2022-08-30T09:59:34;16.13;;;14.48;;
20298;SDS011;10308;42.688;23.256;2022-08-30T10:02:11;17.23;;;15.73;;
20298;SDS011;10308;42.688;23.256;2022-08-30T10:04:48;16.27;;;14.65;;
20298;SDS011;10308;42.688;23.256;2022-08-30T10:07:23;16.05;;;14.55;;
20298;SDS011;10308;42.688;23.256;2022-08-30T10:09:55;16.58;;;15.07;;
20298;SDS011;10308;42.688;23.256;2022-08-30T10:12:28;17.15;;;15.43;;
20298;SDS011;10308;42.688;23.256;2022-08-30T10:15:01;17.00;;;15.32;;
20298;SDS011;10308;42.688;23.256;2022-08-30T10:17:35;17.38;;;15.65;;
20298;SDS011;10308;42.688;23.256;2022-08-30T10:20:11;17.55;;;15.75;;
20298;SDS011;10308;42.688;23.256;2022-08-30T10:22:45;18.13;;;16.33;;
20298;SDS011;10308;42.688;23.256;2022-08-30T10:25:15;18.15;;;16.23;;
20298;SDS011;10308;42.688;23.256;2022-08-30T10:27:46;17.30;;;15.80;;
20298;SDS011;10308;42.688;23.256;2022-08-30T10:30:17;17.05;;;15.50;;
20298;SDS011;10308;42.688;23.256;2022-08-30T10:32:46;16.80;;;15.13;;
20298;SDS011;10308;42.688;23.256;2022-08-30T10:35:17;17.33;;;15.63;;
20298;SDS011;10308;42.688;23.256;2022-08-30T10:37:49;15.70;;;14.20;;
20298;SDS011;10308;42.688;23.256;2022-08-30T10:40:20;17.73;;;16.08;;
20298;SDS011;10308;42.688;23.256;2022-08-30T10:43:18;17.90;;;16.13;;
20298;SDS011;10308;42.688;23.256;2022-08-30T10:45:48;17.90;;;16.20;;
20298;SDS011;10308;42.688;23.256;2022-08-30T10:48:20;19.02;;;17.23;;
20298;SDS011;10308;42.688;23.256;2022-08-30T10:50:51;18.27;;;16.45;;
20298;SDS011;10308;42.688;23.256;2022-08-30T10:53:21;18.52;;;16.85;;
20298;SDS011;10308;42.688;23.256;2022-08-30T10:55:54;24.95;;;22.60;;
20298;SDS011;10308;42.688;23.256;2022-08-30T10:58:22;24.08;;;21.88;;
20298;SDS011;10308;42.688;23.256;2022-08-30T11:00:53;20.40;;;18.60;;
20298;SDS011;10308;42.688;23.256;2022-08-30T11:03:37;18.90;;;17.17;;
20298;SDS011;10308;42.688;23.256;2022-08-30T11:06:18;17.90;;;16.00;;
20298;SDS011;10308;42.688;23.256;2022-08-30T11:09:04;17.48;;;15.65;;
20298;SDS011;10308;42.688;23.256;2022-08-30T11:11:47;17.65;;;16.08;;
20298;SDS011;10308;42.688;23.256;2022-08-30T11:14:22;16.90;;;15.32;;
20298;SDS011;10308;42.688;23.256;2022-08-30T11:16:51;17.38;;;15.65;;
20298;SDS011;10308;42.688;23.256;2022-08-30T11:19:22;14.20;;;12.90;;
20298;SDS011;10308;42.688;23.256;2022-08-30T11:21:51;14.40;;;13.10;;
20298;SDS011;10308;42.688;23.256;2022-08-30T11:24:20;16.65;;;15.05;;
20298;SDS011;10308;42.688;23.256;2022-08-30T11:26:50;17.42;;;15.68;;
20298;SDS011;10308;42.688;23.256;2022-08-30T11:29:40;15.45;;;13.95;;
20298;SDS011;10308;42.688;23.256;2022-08-30T11:32:25;16.38;;;14.68;;
20298;SDS011;10308;42.688;23.256;2022-08-30T11:35:40;17.25;;;15.48;;
20298;SDS011;10308;42.688;23.256;2022-08-30T11:38:12;20.83;;;15.93;;
20298;SDS011;10308;42.688;23.256;2022-08-30T11:40:45;14.98;;;13.63;;
20298;SDS011;10308;42.688;23.256;2022-08-30T11:46:15;15.80;;;14.20;;
20298;SDS011;10308;42.688;23.256;2022-08-30T11:48:45;16.63;;;15.05;;
20298;SDS011;10308;42.688;23.256;2022-08-30T11:51:25;15.65;;;14.25;;
20298;SDS011;10308;42.688;23.256;2022-08-30T11:54:17;15.98;;;14.38;;
20298;SDS011;10308;42.688;23.256;2022-08-30T11:56:53;16.38;;;14.75;;
20298;SDS011;10308;42.688;23.256;2022-08-30T11:59:27;16.80;;;12.93;;
20298;SDS011;10308;42.688;23.256;2022-08-30T12:01:57;13.50;;;12.30;;
20298;SDS011;10308;42.688;23.256;2022-08-30T12:04:26;15.73;;;14.15;;
20298;SDS011;10308;42.688;23.256;2022-08-30T12:07:02;15.63;;;14.02;;
20298;SDS011;10308;42.688;23.256;2022-08-30T12:12:46;15.38;;;13.98;;
20298;SDS011;10308;42.688;23.256;2022-08-30T12:18:21;15.38;;;14.13;;
20298;SDS011;10308;42.688;23.256;2022-08-30T12:20:54;14.35;;;12.82;;
20298;SDS011;10308;42.688;23.256;2022-08-30T12:23:29;16.08;;;12.57;;
20298;SDS011;10308;42.688;23.256;2022-08-30T12:26:09;14.35;;;13.07;;
20298;SDS011;10308;42.688;23.256;2022-08-30T12:28:38;13.52;;;12.13;;
20298;SDS011;10308;42.688;23.256;2022-08-30T12:31:08;14.65;;;13.25;;
20298;SDS011;10308;42.688;23.256;2022-08-30T12:33:38;13.50;;;12.07;;
20298;SDS011;10308;42.688;23.256;2022-08-30T12:36:10;14.57;;;13.18;;
20298;SDS011;10308;42.688;23.256;2022-08-30T12:38:39;14.30;;;13.07;;
20298;SDS011;10308;42.688;23.256;2022-08-30T12:41:06;14.13;;;12.50;;
20298;SDS011;10308;42.688;23.256;2022-08-30T12:43:34;14.00;;;12.55;;
20298;SDS011;10308;42.688;23.256;2022-08-30T12:46:03;13.55;;;12.35;;
20298;SDS011;10308;42.688;23.256;2022-08-30T12:48:33;15.10;;;13.60;;
20298;SDS011;10308;42.688;23.256;2022-08-30T12:51:01;13.18;;;12.05;;
20298;SDS011;10308;42.688;23.256;2022-08-30T12:53:29;14.38;;;13.00;;
20298;SDS011;10308;42.688;23.256;2022-08-30T12:56:00;12.65;;;11.55;;
20298;SDS011;10308;42.688;23.256;2022-08-30T12:58:36;13.60;;;12.40;;
20298;SDS011;10308;42.688;23.256;2022-08-30T13:01:13;14.05;;;12.65;;
20298;SDS011;10308;42.688;23.256;2022-08-30T13:03:52;13.75;;;12.45;;
20298;SDS011;10308;42.688;23.256;2022-08-30T13:06:34;14.63;;;13.23;;
20298;SDS011;10308;42.688;23.256;2022-08-30T13:09:03;14.60;;;12.93;;
20298;SDS011;10308;42.688;23.256;2022-08-30T13:11:31;14.45;;;13.05;;
20298;SDS011;10308;42.688;23.256;2022-08-30T13:19:56;14.45;;;13.10;;
20298;SDS011;10308;42.688;23.256;2022-08-30T13:22:25;14.55;;;13.25;;
20298;SDS011;10308;42.688;23.256;2022-08-30T13:24:54;14.90;;;13.50;;
20298;SDS011;10308;42.688;23.256;2022-08-30T13:27:23;16.40;;;14.70;;
20298;SDS011;10308;42.688;23.256;2022-08-30T13:29:50;14.18;;;12.77;;
20298;SDS011;10308;42.688;23.256;2022-08-30T13:32:17;15.07;;;13.77;;
20298;SDS011;10308;42.688;23.256;2022-08-30T13:34:44;14.93;;;13.52;;
20298;SDS011;10308;42.688;23.256;2022-08-30T13:37:14;15.27;;;13.77;;
20298;SDS011;10308;42.688;23.256;2022-08-30T13:39:42;14.60;;;13.20;;
20298;SDS011;10308;42.688;23.256;2022-08-30T13:42:09;14.32;;;13.00;;
20298;SDS011;10308;42.688;23.256;2022-08-30T13:44:38;16.10;;;14.40;;
20298;SDS011;10308;42.688;23.256;2022-08-30T13:47:05;14.23;;;13.02;;
20298;SDS011;10308;42.688;23.256;2022-08-30T13:49:33;14.40;;;12.95;;
20298;SDS011;10308;42.688;23.256;2022-08-30T13:52:01;15.00;;;13.70;;
20298;SDS011;10308;42.688;23.256;2022-08-30T13:54:30;16.27;;;12.88;;
20298;SDS011;10308;42.688;23.256;2022-08-30T13:56:57;14.40;;;13.07;;
20298;SDS011;10308;42.688;23.256;2022-08-30T13:59:25;15.40;;;13.90;;
20298;SDS011;10308;42.688;23.256;2022-08-30T14:01:54;15.10;;;13.73;;
20298;SDS011;10308;42.688;23.256;2022-08-30T14:04:21;14.40;;;13.07;;
20298;SDS011;10308;42.688;23.256;2022-08-30T14:06:48;14.40;;;13.10;;
20298;SDS011;10308;42.688;23.256;2022-08-30T14:09:15;15.23;;;13.95;;
20298;SDS011;10308;42.688;23.256;2022-08-30T14:11:41;15.05;;;13.65;;
20298;SDS011;10308;42.688;23.256;2022-08-30T14:14:08;15.27;;;13.80;;
20298;SDS011;10308;42.688;23.256;2022-08-30T14:16:36;14.45;;;13.15;;
20298;SDS011;10308;42.688;23.256;2022-08-30T14:19:05;14.85;;;13.52;;
20298;SDS011;10308;42.688;23.256;2022-08-30T14:21:32;14.77;;;13.38;;
20298;SDS011;10308;42.688;23.256;2022-08-30T14:23:59;15.48;;;14.07;;
20298;SDS011;10308;42.688;23.256;2022-08-30T14:26:26;14.32;;;13.15;;
20298;SDS011;10308;42.688;23.256;2022-08-30T14:28:54;14.48;;;13.07;;
20298;SDS011;10308;42.688;23.256;2022-08-30T14:31:21;14.65;;;13.18;;
20298;SDS011;10308;42.688;23.256;2022-08-30T14:33:50;14.65;;;13.30;;
20298;SDS011;10308;42.688;23.256;2022-08-30T14:36:18;14.73;;;13.43;;
20298;SDS011;10308;42.688;23.256;2022-08-30T14:38:45;15.40;;;13.98;;
20298;SDS011;10308;42.688;23.256;2022-08-30T14:41:12;15.20;;;13.90;;
20298;SDS011;10308;42.688;23.256;2022-08-30T14:43:39;14.80;;;13.35;;
20298;SDS011;10308;42.688;23.256;2022-08-30T14:46:06;15.43;;;14.02;;